sensor_id;sensor_type;location;lat;lon;timestamp;P1;durP1;ratioP1;P2;durP2;ratioP2
21233;SDS011;10774;42.178;26.578;2024-01-15T00:01:07;60.20;;;39.27;;
21233;SDS011;10774;42.178;26.578;2024-01-15T00:03:33;56.80;;;36.67;;
21233;SDS011;10774;42.178;26.578;2024-01-15T00:05:58;52.50;;;33.85;;
21233;SDS011;10774;42.178;26.578;2024-01-15T00:08:23;48.50;;;32.90;;
21233;SDS011;10774;42.178;26.578;2024-01-15T00:10:49;43.97;;;30.15;;
21233;SDS011;10774;42.178;26.578;2024-01-15T00:13:14;41.45;;;30.05;;
21233;SDS011;10774;42.178;26.578;2024-01-15T00:15:40;40.57;;;27.83;;
21233;SDS011;10774;42.178;26.578;2024-01-15T00:18:05;42.33;;;30.55;;
21233;SDS011;10774;42.178;26.578;2024-01-15T00:20:31;53.93;;;36.60;;
21233;SDS011;10774;42.178;26.578;2024-01-15T00:22:56;66.67;;;44.90;;
21233;SDS011;10774;42.178;26.578;2024-01-15T00:25:22;67.22;;;45.00;;
21233;SDS011;10774;42.178;26.578;2024-01-15T00:27:48;62.80;;;42.63;;
21233;SDS011;10774;42.178;26.578;2024-01-15T00:30:13;64.67;;;43.83;;
21233;SDS011;10774;42.178;26.578;2024-01-15T00:32:39;63.20;;;42.80;;
21233;SDS011;10774;42.178;26.578;2024-01-15T00:35:04;60.07;;;41.03;;
21233;SDS011;10774;42.178;26.578;2024-01-15T00:37:30;56.27;;;38.23;;
21233;SDS011;10774;42.178;26.578;2024-01-15T00:39:55;56.07;;;36.30;;
21233;SDS011;10774;42.178;26.578;2024-01-15T00:42:21;43.00;;;30.93;;
21233;SDS011;10774;42.178;26.578;2024-01-15T00:44:46;44.03;;;28.70;;
21233;SDS011;10774;42.178;26.578;2024-01-15T00:47:11;41.70;;;29.03;;
21233;SDS011;10774;42.178;26.578;2024-01-15T00:49:37;41.33;;;27.93;;
21233;SDS011;10774;42.178;26.578;2024-01-15T00:52:02;41.47;;;29.33;;
21233;SDS011;10774;42.178;26.578;2024-01-15T00:54:28;38.30;;;27.97;;
21233;SDS011;10774;42.178;26.578;2024-01-15T00:56:53;38.53;;;28.07;;
21233;SDS011;10774;42.178;26.578;2024-01-15T00:59:20;42.17;;;29.47;;
21233;SDS011;10774;42.178;26.578;2024-01-15T01:37:02;45.97;;;31.23;;
21233;SDS011;10774;42.178;26.578;2024-01-15T01:39:27;49.47;;;35.30;;
21233;SDS011;10774;42.178;26.578;2024-01-15T01:41:52;57.87;;;42.17;;
21233;SDS011;10774;42.178;26.578;2024-01-15T01:44:18;51.00;;;34.10;;
21233;SDS011;10774;42.178;26.578;2024-01-15T01:46:43;43.40;;;30.00;;
21233;SDS011;10774;42.178;26.578;2024-01-15T01:49:09;43.23;;;30.47;;
21233;SDS011;10774;42.178;26.578;2024-01-15T01:51:34;47.93;;;34.40;;
21233;SDS011;10774;42.178;26.578;2024-01-15T01:54:02;50.23;;;35.17;;
21233;SDS011;10774;42.178;26.578;2024-01-15T01:56:29;54.40;;;37.43;;
21233;SDS011;10774;42.178;26.578;2024-01-15T01:58:54;63.20;;;42.00;;
21233;SDS011;10774;42.178;26.578;2024-01-15T02:01:20;72.07;;;45.43;;
21233;SDS011;10774;42.178;26.578;2024-01-15T02:03:45;68.33;;;43.67;;
21233;SDS011;10774;42.178;26.578;2024-01-15T02:06:11;57.83;;;39.60;;
21233;SDS011;10774;42.178;26.578;2024-01-15T02:08:36;50.87;;;36.17;;
21233;SDS011;10774;42.178;26.578;2024-01-15T02:11:03;53.40;;;37.47;;
21233;SDS011;10774;42.178;26.578;2024-01-15T02:13:28;82.43;;;49.10;;
21233;SDS011;10774;42.178;26.578;2024-01-15T02:15:54;87.33;;;51.90;;
21233;SDS011;10774;42.178;26.578;2024-01-15T02:18:19;68.23;;;45.43;;
21233;SDS011;10774;42.178;26.578;2024-01-15T02:20:45;74.03;;;48.20;;
21233;SDS011;10774;42.178;26.578;2024-01-15T02:25:40;59.00;;;40.70;;
21233;SDS011;10774;42.178;26.578;2024-01-15T02:28:10;65.70;;;41.73;;
21233;SDS011;10774;42.178;26.578;2024-01-15T02:30:41;67.03;;;45.07;;
21233;SDS011;10774;42.178;26.578;2024-01-15T02:33:07;65.40;;;45.80;;
21233;SDS011;10774;42.178;26.578;2024-01-15T02:35:34;58.67;;;40.33;;
21233;SDS011;10774;42.178;26.578;2024-01-15T02:38:06;55.07;;;37.40;;
21233;SDS011;10774;42.178;26.578;2024-01-15T02:40:32;45.60;;;32.73;;
21233;SDS011;10774;42.178;26.578;2024-01-15T02:42:58;47.47;;;32.93;;
21233;SDS011;10774;42.178;26.578;2024-01-15T02:45:23;46.90;;;32.27;;
21233;SDS011;10774;42.178;26.578;2024-01-15T02:47:49;43.43;;;31.53;;
21233;SDS011;10774;42.178;26.578;2024-01-15T02:50:14;50.20;;;32.13;;
21233;SDS011;10774;42.178;26.578;2024-01-15T02:52:41;43.03;;;31.43;;
21233;SDS011;10774;42.178;26.578;2024-01-15T02:55:07;49.80;;;33.47;;
21233;SDS011;10774;42.178;26.578;2024-01-15T02:57:33;46.77;;;31.97;;
21233;SDS011;10774;42.178;26.578;2024-01-15T02:59:59;46.30;;;30.50;;
21233;SDS011;10774;42.178;26.578;2024-01-15T03:02:24;45.73;;;32.10;;
21233;SDS011;10774;42.178;26.578;2024-01-15T03:04:50;49.57;;;35.07;;
21233;SDS011;10774;42.178;26.578;2024-01-15T03:07:15;58.23;;;40.87;;
21233;SDS011;10774;42.178;26.578;2024-01-15T03:09:41;87.07;;;58.37;;
21233;SDS011;10774;42.178;26.578;2024-01-15T03:12:07;80.33;;;52.57;;
21233;SDS011;10774;42.178;26.578;2024-01-15T03:14:32;60.23;;;40.87;;
21233;SDS011;10774;42.178;26.578;2024-01-15T03:16:58;47.70;;;34.20;;
21233;SDS011;10774;42.178;26.578;2024-01-15T03:19:23;62.87;;;37.47;;
21233;SDS011;10774;42.178;26.578;2024-01-15T03:21:49;93.47;;;39.73;;
21233;SDS011;10774;42.178;26.578;2024-01-15T03:24:14;86.55;;;37.55;;
21233;SDS011;10774;42.178;26.578;2024-01-15T03:26:39;86.73;;;38.60;;
21233;SDS011;10774;42.178;26.578;2024-01-15T03:29:05;112.43;;;41.10;;
21233;SDS011;10774;42.178;26.578;2024-01-15T03:31:31;100.80;;;40.90;;
21233;SDS011;10774;42.178;26.578;2024-01-15T03:33:56;72.03;;;36.60;;
21233;SDS011;10774;42.178;26.578;2024-01-15T03:36:22;69.67;;;35.50;;
21233;SDS011;10774;42.178;26.578;2024-01-15T03:38:47;84.33;;;35.17;;
21233;SDS011;10774;42.178;26.578;2024-01-15T03:41:13;76.97;;;35.73;;
21233;SDS011;10774;42.178;26.578;2024-01-15T03:43:39;103.67;;;35.03;;
21233;SDS011;10774;42.178;26.578;2024-01-15T03:46:05;219.57;;;38.80;;
21233;SDS011;10774;42.178;26.578;2024-01-15T03:48:30;101.27;;;34.77;;
21233;SDS011;10774;42.178;26.578;2024-01-15T03:50:56;121.70;;;36.47;;
21233;SDS011;10774;42.178;26.578;2024-01-15T03:53:21;79.53;;;34.70;;
21233;SDS011;10774;42.178;26.578;2024-01-15T03:55:47;62.47;;;35.13;;
21233;SDS011;10774;42.178;26.578;2024-01-15T03:58:12;94.43;;;39.73;;
21233;SDS011;10774;42.178;26.578;2024-01-15T04:00:39;74.87;;;34.73;;
21233;SDS011;10774;42.178;26.578;2024-01-15T04:03:05;88.60;;;35.97;;
21233;SDS011;10774;42.178;26.578;2024-01-15T04:05:30;58.23;;;33.47;;
21233;SDS011;10774;42.178;26.578;2024-01-15T04:07:56;75.70;;;37.40;;
21233;SDS011;10774;42.178;26.578;2024-01-15T04:10:21;68.80;;;35.60;;
21233;SDS011;10774;42.178;26.578;2024-01-15T04:12:47;79.50;;;32.23;;
21233;SDS011;10774;42.178;26.578;2024-01-15T04:15:12;71.13;;;33.40;;
21233;SDS011;10774;42.178;26.578;2024-01-15T04:17:38;121.33;;;34.83;;
21233;SDS011;10774;42.178;26.578;2024-01-15T04:20:04;89.10;;;31.17;;
21233;SDS011;10774;42.178;26.578;2024-01-15T04:22:29;63.70;;;33.17;;
21233;SDS011;10774;42.178;26.578;2024-01-15T04:24:55;75.47;;;35.87;;
21233;SDS011;10774;42.178;26.578;2024-01-15T04:27:20;75.50;;;36.47;;
21233;SDS011;10774;42.178;26.578;2024-01-15T04:29:46;90.10;;;39.33;;
21233;SDS011;10774;42.178;26.578;2024-01-15T04:32:11;92.43;;;39.50;;
21233;SDS011;10774;42.178;26.578;2024-01-15T04:34:37;117.53;;;42.03;;
21233;SDS011;10774;42.178;26.578;2024-01-15T04:37:02;75.07;;;39.23;;
21233;SDS011;10774;42.178;26.578;2024-01-15T04:39:28;84.63;;;41.77;;
21233;SDS011;10774;42.178;26.578;2024-01-15T04:41:54;117.77;;;53.10;;
21233;SDS011;10774;42.178;26.578;2024-01-15T04:44:20;140.53;;;50.63;;
21233;SDS011;10774;42.178;26.578;2024-01-15T04:46:45;150.33;;;49.90;;
21233;SDS011;10774;42.178;26.578;2024-01-15T04:49:11;210.03;;;58.07;;
21233;SDS011;10774;42.178;26.578;2024-01-15T04:51:36;102.90;;;49.97;;
21233;SDS011;10774;42.178;26.578;2024-01-15T04:54:02;236.70;;;66.10;;
21233;SDS011;10774;42.178;26.578;2024-01-15T04:56:27;118.47;;;51.37;;
21233;SDS011;10774;42.178;26.578;2024-01-15T04:58:53;102.70;;;48.73;;
21233;SDS011;10774;42.178;26.578;2024-01-15T05:01:18;104.03;;;46.23;;
21233;SDS011;10774;42.178;26.578;2024-01-15T05:03:43;99.97;;;47.17;;
21233;SDS011;10774;42.178;26.578;2024-01-15T05:06:09;109.90;;;51.57;;
21233;SDS011;10774;42.178;26.578;2024-01-15T05:08:36;236.97;;;69.70;;
21233;SDS011;10774;42.178;26.578;2024-01-15T05:11:02;288.23;;;72.80;;
21233;SDS011;10774;42.178;26.578;2024-01-15T05:13:27;210.73;;;73.87;;
21233;SDS011;10774;42.178;26.578;2024-01-15T05:15:53;193.40;;;70.50;;
21233;SDS011;10774;42.178;26.578;2024-01-15T05:18:18;209.80;;;92.10;;
21233;SDS011;10774;42.178;26.578;2024-01-15T05:20:44;183.48;;;96.93;;
21233;SDS011;10774;42.178;26.578;2024-01-15T05:23:09;130.37;;;66.73;;
21233;SDS011;10774;42.178;26.578;2024-01-15T05:25:35;141.20;;;71.93;;
21233;SDS011;10774;42.178;26.578;2024-01-15T05:28:00;113.17;;;60.43;;
21233;SDS011;10774;42.178;26.578;2024-01-15T05:30:26;83.90;;;42.40;;
21233;SDS011;10774;42.178;26.578;2024-01-15T05:32:51;75.83;;;39.80;;
21233;SDS011;10774;42.178;26.578;2024-01-15T05:35:17;80.33;;;41.70;;
21233;SDS011;10774;42.178;26.578;2024-01-15T05:37:43;79.73;;;44.23;;
21233;SDS011;10774;42.178;26.578;2024-01-15T05:40:13;91.47;;;45.93;;
21233;SDS011;10774;42.178;26.578;2024-01-15T05:42:39;86.03;;;45.43;;
21233;SDS011;10774;42.178;26.578;2024-01-15T05:45:05;72.07;;;40.47;;
21233;SDS011;10774;42.178;26.578;2024-01-15T05:47:31;69.57;;;37.13;;
21233;SDS011;10774;42.178;26.578;2024-01-15T05:50:01;105.43;;;42.77;;
21233;SDS011;10774;42.178;26.578;2024-01-15T05:52:26;57.17;;;31.90;;
21233;SDS011;10774;42.178;26.578;2024-01-15T05:54:52;48.73;;;30.67;;
21233;SDS011;10774;42.178;26.578;2024-01-15T05:57:17;44.50;;;27.87;;
21233;SDS011;10774;42.178;26.578;2024-01-15T05:59:44;36.93;;;25.77;;
21233;SDS011;10774;42.178;26.578;2024-01-15T06:02:10;39.93;;;28.80;;
21233;SDS011;10774;42.178;26.578;2024-01-15T06:04:35;48.00;;;32.53;;
21233;SDS011;10774;42.178;26.578;2024-01-15T06:07:01;65.67;;;42.73;;
21233;SDS011;10774;42.178;26.578;2024-01-15T06:09:27;77.27;;;50.80;;
21233;SDS011;10774;42.178;26.578;2024-01-15T06:11:53;72.27;;;44.07;;
21233;SDS011;10774;42.178;26.578;2024-01-15T06:14:18;102.83;;;60.83;;
21233;SDS011;10774;42.178;26.578;2024-01-15T06:16:44;86.53;;;53.60;;
21233;SDS011;10774;42.178;26.578;2024-01-15T06:19:09;74.10;;;45.97;;
21233;SDS011;10774;42.178;26.578;2024-01-15T06:21:35;64.63;;;40.27;;
21233;SDS011;10774;42.178;26.578;2024-01-15T06:24:00;62.63;;;38.17;;
21233;SDS011;10774;42.178;26.578;2024-01-15T06:26:26;63.60;;;38.27;;
21233;SDS011;10774;42.178;26.578;2024-01-15T06:28:51;68.10;;;40.40;;
21233;SDS011;10774;42.178;26.578;2024-01-15T06:31:17;72.43;;;45.13;;
21233;SDS011;10774;42.178;26.578;2024-01-15T06:33:42;79.93;;;51.07;;
21233;SDS011;10774;42.178;26.578;2024-01-15T06:36:07;59.57;;;37.57;;
21233;SDS011;10774;42.178;26.578;2024-01-15T06:38:33;85.87;;;46.43;;
21233;SDS011;10774;42.178;26.578;2024-01-15T06:40:59;108.60;;;58.70;;
21233;SDS011;10774;42.178;26.578;2024-01-15T06:43:24;87.83;;;59.53;;
21233;SDS011;10774;42.178;26.578;2024-01-15T06:45:50;71.73;;;46.77;;
21233;SDS011;10774;42.178;26.578;2024-01-15T06:48:15;79.43;;;48.13;;
21233;SDS011;10774;42.178;26.578;2024-01-15T06:50:44;89.73;;;61.77;;
21233;SDS011;10774;42.178;26.578;2024-01-15T06:53:10;87.00;;;59.50;;
21233;SDS011;10774;42.178;26.578;2024-01-15T06:55:36;79.73;;;52.67;;
21233;SDS011;10774;42.178;26.578;2024-01-15T06:58:02;92.33;;;57.57;;
21233;SDS011;10774;42.178;26.578;2024-01-15T07:00:28;95.97;;;63.40;;
21233;SDS011;10774;42.178;26.578;2024-01-15T07:02:53;83.33;;;54.43;;
21233;SDS011;10774;42.178;26.578;2024-01-15T07:05:20;104.10;;;69.67;;
21233;SDS011;10774;42.178;26.578;2024-01-15T07:07:45;74.73;;;49.50;;
21233;SDS011;10774;42.178;26.578;2024-01-15T07:10:11;84.13;;;52.27;;
21233;SDS011;10774;42.178;26.578;2024-01-15T07:12:36;85.23;;;53.67;;
21233;SDS011;10774;42.178;26.578;2024-01-15T07:15:02;105.17;;;66.37;;
21233;SDS011;10774;42.178;26.578;2024-01-15T07:17:29;106.33;;;65.37;;
21233;SDS011;10774;42.178;26.578;2024-01-15T07:19:55;92.13;;;58.20;;
21233;SDS011;10774;42.178;26.578;2024-01-15T07:22:20;91.07;;;53.13;;
21233;SDS011;10774;42.178;26.578;2024-01-15T07:24:45;87.17;;;53.53;;
21233;SDS011;10774;42.178;26.578;2024-01-15T07:27:11;83.95;;;52.05;;
21233;SDS011;10774;42.178;26.578;2024-01-15T07:29:36;99.43;;;52.25;;
21233;SDS011;10774;42.178;26.578;2024-01-15T07:32:02;81.22;;;45.20;;
21233;SDS011;10774;42.178;26.578;2024-01-15T07:34:29;66.15;;;38.83;;
21233;SDS011;10774;42.178;26.578;2024-01-15T07:36:54;112.75;;;56.10;;
21233;SDS011;10774;42.178;26.578;2024-01-15T07:39:20;73.07;;;40.60;;
21233;SDS011;10774;42.178;26.578;2024-01-15T07:41:47;63.15;;;35.05;;
21233;SDS011;10774;42.178;26.578;2024-01-15T07:44:13;49.97;;;29.25;;
21233;SDS011;10774;42.178;26.578;2024-01-15T07:46:38;62.30;;;36.17;;
21233;SDS011;10774;42.178;26.578;2024-01-15T07:49:04;60.42;;;36.25;;
21233;SDS011;10774;42.178;26.578;2024-01-15T07:51:30;80.05;;;44.67;;
21233;SDS011;10774;42.178;26.578;2024-01-15T07:53:55;66.68;;;40.10;;
21233;SDS011;10774;42.178;26.578;2024-01-15T07:56:21;72.50;;;43.85;;
21233;SDS011;10774;42.178;26.578;2024-01-15T07:58:46;72.40;;;43.53;;
21233;SDS011;10774;42.178;26.578;2024-01-15T08:01:12;82.72;;;48.40;;
21233;SDS011;10774;42.178;26.578;2024-01-15T08:03:37;68.63;;;43.17;;
21233;SDS011;10774;42.178;26.578;2024-01-15T08:06:03;70.07;;;41.72;;
21233;SDS011;10774;42.178;26.578;2024-01-15T08:08:29;71.57;;;43.03;;
21233;SDS011;10774;42.178;26.578;2024-01-15T08:10:54;71.75;;;43.78;;
21233;SDS011;10774;42.178;26.578;2024-01-15T08:13:19;76.88;;;43.90;;
21233;SDS011;10774;42.178;26.578;2024-01-15T08:15:45;172.70;;;85.30;;
21233;SDS011;10774;42.178;26.578;2024-01-15T08:18:11;160.40;;;80.10;;
21233;SDS011;10774;42.178;26.578;2024-01-15T08:20:36;178.65;;;84.63;;
21233;SDS011;10774;42.178;26.578;2024-01-15T08:23:02;188.23;;;85.50;;
21233;SDS011;10774;42.178;26.578;2024-01-15T08:25:28;209.20;;;83.53;;
21233;SDS011;10774;42.178;26.578;2024-01-15T08:27:53;196.10;;;104.53;;
21233;SDS011;10774;42.178;26.578;2024-01-15T08:30:18;281.23;;;91.63;;
21233;SDS011;10774;42.178;26.578;2024-01-15T08:32:45;141.40;;;76.30;;
21233;SDS011;10774;42.178;26.578;2024-01-15T08:35:11;107.13;;;60.40;;
21233;SDS011;10774;42.178;26.578;2024-01-15T08:37:36;102.20;;;52.63;;
21233;SDS011;10774;42.178;26.578;2024-01-15T08:40:03;97.50;;;51.10;;
21233;SDS011;10774;42.178;26.578;2024-01-15T08:42:28;108.93;;;53.93;;
21233;SDS011;10774;42.178;26.578;2024-01-15T08:44:54;90.77;;;49.27;;
21233;SDS011;10774;42.178;26.578;2024-01-15T08:47:19;91.10;;;45.10;;
21233;SDS011;10774;42.178;26.578;2024-01-15T08:49:45;102.67;;;55.30;;
21233;SDS011;10774;42.178;26.578;2024-01-15T08:52:11;113.73;;;58.80;;
21233;SDS011;10774;42.178;26.578;2024-01-15T08:54:36;100.97;;;56.40;;
21233;SDS011;10774;42.178;26.578;2024-01-15T08:57:02;116.73;;;46.23;;
21233;SDS011;10774;42.178;26.578;2024-01-15T08:59:27;92.70;;;50.60;;
21233;SDS011;10774;42.178;26.578;2024-01-15T09:01:53;122.57;;;72.27;;
21233;SDS011;10774;42.178;26.578;2024-01-15T09:04:18;102.80;;;59.03;;
21233;SDS011;10774;42.178;26.578;2024-01-15T09:06:47;71.40;;;43.07;;
21233;SDS011;10774;42.178;26.578;2024-01-15T09:09:13;71.20;;;39.73;;
21233;SDS011;10774;42.178;26.578;2024-01-15T09:11:41;80.60;;;51.13;;
21233;SDS011;10774;42.178;26.578;2024-01-15T09:14:07;65.80;;;38.73;;
21233;SDS011;10774;42.178;26.578;2024-01-15T09:16:33;60.60;;;38.23;;
21233;SDS011;10774;42.178;26.578;2024-01-15T09:18:59;62.97;;;38.83;;
21233;SDS011;10774;42.178;26.578;2024-01-15T09:21:24;60.63;;;38.55;;
21233;SDS011;10774;42.178;26.578;2024-01-15T09:23:50;51.78;;;35.55;;
21233;SDS011;10774;42.178;26.578;2024-01-15T09:26:16;52.17;;;33.50;;
21233;SDS011;10774;42.178;26.578;2024-01-15T09:28:41;64.63;;;34.78;;
21233;SDS011;10774;42.178;26.578;2024-01-15T09:31:07;60.35;;;29.15;;
21233;SDS011;10774;42.178;26.578;2024-01-15T09:33:33;53.53;;;30.83;;
21233;SDS011;10774;42.178;26.578;2024-01-15T09:36:01;64.72;;;34.30;;
21233;SDS011;10774;42.178;26.578;2024-01-15T09:38:29;62.88;;;35.75;;
21233;SDS011;10774;42.178;26.578;2024-01-15T09:40:55;73.47;;;36.97;;
21233;SDS011;10774;42.178;26.578;2024-01-15T09:43:20;71.35;;;40.58;;
21233;SDS011;10774;42.178;26.578;2024-01-15T09:45:46;62.30;;;37.65;;
21233;SDS011;10774;42.178;26.578;2024-01-15T09:48:12;63.22;;;40.08;;
21233;SDS011;10774;42.178;26.578;2024-01-15T09:50:38;55.33;;;36.22;;
21233;SDS011;10774;42.178;26.578;2024-01-15T09:53:04;59.55;;;36.15;;
21233;SDS011;10774;42.178;26.578;2024-01-15T09:55:30;67.43;;;42.70;;
21233;SDS011;10774;42.178;26.578;2024-01-15T09:57:57;71.00;;;43.05;;
21233;SDS011;10774;42.178;26.578;2024-01-15T10:00:26;67.45;;;39.85;;
21233;SDS011;10774;42.178;26.578;2024-01-15T10:02:52;60.72;;;38.55;;
21233;SDS011;10774;42.178;26.578;2024-01-15T10:05:18;63.78;;;40.10;;
21233;SDS011;10774;42.178;26.578;2024-01-15T10:07:43;50.20;;;32.55;;
21233;SDS011;10774;42.178;26.578;2024-01-15T10:10:12;82.15;;;51.60;;
21233;SDS011;10774;42.178;26.578;2024-01-15T10:12:38;59.53;;;33.80;;
21233;SDS011;10774;42.178;26.578;2024-01-15T10:15:04;54.45;;;32.65;;
21233;SDS011;10774;42.178;26.578;2024-01-15T10:17:30;79.55;;;51.20;;
21233;SDS011;10774;42.178;26.578;2024-01-15T10:19:56;56.50;;;36.88;;
21233;SDS011;10774;42.178;26.578;2024-01-15T10:22:22;63.85;;;40.28;;
21233;SDS011;10774;42.178;26.578;2024-01-15T10:24:48;64.55;;;38.97;;
21233;SDS011;10774;42.178;26.578;2024-01-15T10:27:14;56.33;;;30.17;;
21233;SDS011;10774;42.178;26.578;2024-01-15T10:29:41;57.58;;;34.17;;
21233;SDS011;10774;42.178;26.578;2024-01-15T10:32:07;60.88;;;34.80;;
21233;SDS011;10774;42.178;26.578;2024-01-15T10:34:38;54.38;;;32.20;;
21233;SDS011;10774;42.178;26.578;2024-01-15T10:37:06;59.20;;;35.50;;
21233;SDS011;10774;42.178;26.578;2024-01-15T10:39:32;49.35;;;28.75;;
21233;SDS011;10774;42.178;26.578;2024-01-15T10:41:58;46.92;;;28.45;;
21233;SDS011;10774;42.178;26.578;2024-01-15T10:44:24;49.17;;;30.20;;
21233;SDS011;10774;42.178;26.578;2024-01-15T10:46:50;49.85;;;31.10;;
21233;SDS011;10774;42.178;26.578;2024-01-15T10:49:16;54.97;;;33.72;;
21233;SDS011;10774;42.178;26.578;2024-01-15T10:51:45;49.83;;;33.45;;
21233;SDS011;10774;42.178;26.578;2024-01-15T10:54:12;88.35;;;52.28;;
21233;SDS011;10774;42.178;26.578;2024-01-15T10:56:39;161.15;;;106.88;;
21233;SDS011;10774;42.178;26.578;2024-01-15T10:59:05;65.78;;;40.80;;
21233;SDS011;10774;42.178;26.578;2024-01-15T11:01:32;63.55;;;42.40;;
21233;SDS011;10774;42.178;26.578;2024-01-15T11:03:59;51.50;;;34.63;;
21233;SDS011;10774;42.178;26.578;2024-01-15T11:06:25;52.45;;;34.72;;
21233;SDS011;10774;42.178;26.578;2024-01-15T11:08:54;49.08;;;31.00;;
21233;SDS011;10774;42.178;26.578;2024-01-15T11:11:20;50.00;;;33.90;;
21233;SDS011;10774;42.178;26.578;2024-01-15T11:13:47;48.22;;;32.10;;
21233;SDS011;10774;42.178;26.578;2024-01-15T11:16:14;50.15;;;32.70;;
21233;SDS011;10774;42.178;26.578;2024-01-15T11:19:01;42.15;;;28.27;;
21233;SDS011;10774;42.178;26.578;2024-01-15T11:21:27;51.58;;;34.80;;
21233;SDS011;10774;42.178;26.578;2024-01-15T11:23:58;46.88;;;32.45;;
21233;SDS011;10774;42.178;26.578;2024-01-15T11:31:57;40.53;;;26.70;;
21233;SDS011;10774;42.178;26.578;2024-01-15T11:37:14;43.55;;;30.50;;
21233;SDS011;10774;42.178;26.578;2024-01-15T11:39:40;46.72;;;28.40;;
21233;SDS011;10774;42.178;26.578;2024-01-15T11:42:12;40.03;;;26.48;;
21233;SDS011;10774;42.178;26.578;2024-01-15T11:44:39;38.72;;;25.15;;
21233;SDS011;10774;42.178;26.578;2024-01-15T11:47:08;38.40;;;25.52;;
21233;SDS011;10774;42.178;26.578;2024-01-15T11:52:18;35.75;;;24.85;;
21233;SDS011;10774;42.178;26.578;2024-01-15T11:54:49;40.67;;;26.45;;
21233;SDS011;10774;42.178;26.578;2024-01-15T11:58:08;45.22;;;25.95;;
21233;SDS011;10774;42.178;26.578;2024-01-15T12:00:19;41.55;;;29.02;;
21233;SDS011;10774;42.178;26.578;2024-01-15T12:02:46;36.33;;;25.05;;
21233;SDS011;10774;42.178;26.578;2024-01-15T12:05:15;34.72;;;23.80;;
21233;SDS011;10774;42.178;26.578;2024-01-15T12:07:42;35.85;;;23.10;;
21233;SDS011;10774;42.178;26.578;2024-01-15T12:10:10;36.88;;;24.15;;
21233;SDS011;10774;42.178;26.578;2024-01-15T12:12:42;39.80;;;25.48;;
21233;SDS011;10774;42.178;26.578;2024-01-15T12:15:11;36.08;;;22.88;;
21233;SDS011;10774;42.178;26.578;2024-01-15T12:17:39;38.60;;;27.73;;
21233;SDS011;10774;42.178;26.578;2024-01-15T12:20:06;37.47;;;27.75;;
21233;SDS011;10774;42.178;26.578;2024-01-15T12:22:32;43.38;;;27.77;;
21233;SDS011;10774;42.178;26.578;2024-01-15T12:24:58;38.05;;;25.23;;
21233;SDS011;10774;42.178;26.578;2024-01-15T12:27:23;35.90;;;24.33;;
21233;SDS011;10774;42.178;26.578;2024-01-15T12:29:49;37.13;;;24.75;;
21233;SDS011;10774;42.178;26.578;2024-01-15T12:32:15;34.15;;;22.52;;
21233;SDS011;10774;42.178;26.578;2024-01-15T12:34:40;34.47;;;24.35;;
21233;SDS011;10774;42.178;26.578;2024-01-15T12:37:07;36.17;;;26.13;;
21233;SDS011;10774;42.178;26.578;2024-01-15T12:39:36;36.33;;;25.83;;
21233;SDS011;10774;42.178;26.578;2024-01-15T12:42:01;33.50;;;24.77;;
21233;SDS011;10774;42.178;26.578;2024-01-15T12:44:28;47.17;;;30.38;;
21233;SDS011;10774;42.178;26.578;2024-01-15T12:46:54;70.22;;;41.67;;
21233;SDS011;10774;42.178;26.578;2024-01-15T12:49:20;142.20;;;76.65;;
21233;SDS011;10774;42.178;26.578;2024-01-15T12:52:20;56.28;;;35.38;;
21233;SDS011;10774;42.178;26.578;2024-01-15T12:54:38;108.47;;;56.88;;
21233;SDS011;10774;42.178;26.578;2024-01-15T12:57:03;75.68;;;44.22;;
21233;SDS011;10774;42.178;26.578;2024-01-15T12:59:29;160.40;;;90.53;;
21233;SDS011;10774;42.178;26.578;2024-01-15T13:01:54;120.70;;;74.25;;
21233;SDS011;10774;42.178;26.578;2024-01-15T13:04:23;88.68;;;56.65;;
21233;SDS011;10774;42.178;26.578;2024-01-15T13:06:49;66.15;;;43.50;;
21233;SDS011;10774;42.178;26.578;2024-01-15T13:09:16;52.25;;;36.95;;
21233;SDS011;10774;42.178;26.578;2024-01-15T13:11:44;37.30;;;25.38;;
21233;SDS011;10774;42.178;26.578;2024-01-15T13:14:10;33.25;;;23.15;;
21233;SDS011;10774;42.178;26.578;2024-01-15T13:16:36;41.15;;;26.83;;
21233;SDS011;10774;42.178;26.578;2024-01-15T13:19:01;33.53;;;21.58;;
21233;SDS011;10774;42.178;26.578;2024-01-15T13:21:29;39.25;;;26.27;;
21233;SDS011;10774;42.178;26.578;2024-01-15T13:23:55;45.47;;;29.55;;
21233;SDS011;10774;42.178;26.578;2024-01-15T13:26:20;54.88;;;32.38;;
21233;SDS011;10774;42.178;26.578;2024-01-15T13:28:46;50.05;;;29.60;;
21233;SDS011;10774;42.178;26.578;2024-01-15T13:31:11;51.60;;;32.10;;
21233;SDS011;10774;42.178;26.578;2024-01-15T13:33:37;36.72;;;23.98;;
21233;SDS011;10774;42.178;26.578;2024-01-15T13:36:03;37.20;;;23.98;;
21233;SDS011;10774;42.178;26.578;2024-01-15T13:38:33;37.45;;;24.02;;
21233;SDS011;10774;42.178;26.578;2024-01-15T13:41:01;39.78;;;26.25;;
21233;SDS011;10774;42.178;26.578;2024-01-15T13:43:27;37.03;;;24.77;;
21233;SDS011;10774;42.178;26.578;2024-01-15T13:45:52;42.70;;;28.40;;
21233;SDS011;10774;42.178;26.578;2024-01-15T13:48:19;110.80;;;56.53;;
21233;SDS011;10774;42.178;26.578;2024-01-15T13:50:45;94.35;;;50.17;;
21233;SDS011;10774;42.178;26.578;2024-01-15T13:53:11;52.72;;;32.10;;
21233;SDS011;10774;42.178;26.578;2024-01-15T13:55:36;64.22;;;35.47;;
21233;SDS011;10774;42.178;26.578;2024-01-15T13:58:01;62.75;;;37.50;;
21233;SDS011;10774;42.178;26.578;2024-01-15T14:00:30;69.25;;;40.85;;
21233;SDS011;10774;42.178;26.578;2024-01-15T14:03:00;56.63;;;37.78;;
21233;SDS011;10774;42.178;26.578;2024-01-15T14:05:25;64.55;;;43.38;;
21233;SDS011;10774;42.178;26.578;2024-01-15T14:07:51;54.92;;;35.15;;
21233;SDS011;10774;42.178;26.578;2024-01-15T14:10:16;49.70;;;32.47;;
21233;SDS011;10774;42.178;26.578;2024-01-15T14:12:42;50.50;;;31.58;;
21233;SDS011;10774;42.178;26.578;2024-01-15T14:15:08;61.03;;;40.38;;
21233;SDS011;10774;42.178;26.578;2024-01-15T14:17:34;80.00;;;49.78;;
21233;SDS011;10774;42.178;26.578;2024-01-15T14:19:59;51.72;;;33.47;;
21233;SDS011;10774;42.178;26.578;2024-01-15T14:22:25;55.75;;;39.30;;
21233;SDS011;10774;42.178;26.578;2024-01-15T14:24:53;52.38;;;37.15;;
21233;SDS011;10774;42.178;26.578;2024-01-15T14:27:19;54.28;;;36.88;;
21233;SDS011;10774;42.178;26.578;2024-01-15T14:29:44;50.83;;;36.97;;
21233;SDS011;10774;42.178;26.578;2024-01-15T14:32:11;50.80;;;35.03;;
21233;SDS011;10774;42.178;26.578;2024-01-15T14:34:37;59.20;;;40.45;;
21233;SDS011;10774;42.178;26.578;2024-01-15T14:37:02;62.70;;;43.17;;
21233;SDS011;10774;42.178;26.578;2024-01-15T14:39:31;76.05;;;50.08;;
21233;SDS011;10774;42.178;26.578;2024-01-15T14:41:59;69.38;;;45.35;;
21233;SDS011;10774;42.178;26.578;2024-01-15T14:44:25;72.78;;;50.53;;
21233;SDS011;10774;42.178;26.578;2024-01-15T14:46:50;76.90;;;55.50;;
21233;SDS011;10774;42.178;26.578;2024-01-15T14:49:16;78.95;;;56.00;;